createdAt,value
2023-01-08T00:03:03.656Z,29.15
2023-01-08T00:06:09.311Z,31.05
2023-01-08T00:09:15.244Z,32.88
2023-01-08T00:12:20.439Z,34.60
2023-01-08T00:15:26.184Z,26.73
2023-01-08T00:18:33.584Z,27.87
2023-01-08T00:21:38.769Z,29.80
2023-01-08T00:24:45.744Z,39.92
2023-01-08T00:27:51.838Z,25.50
2023-01-08T00:30:51.180Z,30.27
2023-01-08T00:33:56.920Z,41.60
2023-01-08T00:37:02.073Z,31.20
2023-01-08T00:40:07.509Z,30.72
2023-01-08T00:43:12.650Z,28.55
2023-01-08T00:46:18.755Z,32.10
2023-01-08T00:49:24.769Z,33.20
2023-01-08T00:52:29.874Z,31.50
2023-01-08T00:55:36.771Z,38.28
2023-01-08T00:58:41.340Z,36.23
2023-01-08T01:01:47.843Z,38.95
2023-01-08T01:04:53.707Z,35.30
2023-01-08T01:07:59.856Z,40.60
2023-01-08T01:11:06.230Z,38.55
2023-01-08T01:14:11.734Z,42.00
2023-01-08T01:17:17.550Z,28.20
2023-01-08T01:20:24.359Z,34.73
2023-01-08T01:23:29.819Z,30.30
2023-01-08T01:26:36.720Z,38.58
2023-01-08T01:29:43.021Z,32.35
2023-01-08T01:32:41.191Z,36.20
2023-01-08T01:35:46.749Z,35.17
2023-01-08T01:38:51.763Z,42.25
2023-01-08T01:42:00.641Z,34.63
2023-01-08T01:45:05.676Z,34.40
2023-01-08T01:48:14.897Z,41.88
2023-01-08T01:51:20.400Z,31.55
2023-01-08T01:54:26.274Z,29.45
2023-01-08T01:57:31.498Z,29.18
2023-01-08T02:00:37.321Z,36.98
2023-01-08T02:03:47.151Z,32.25
2023-01-08T02:07:31.703Z,23.83
2023-01-08T02:10:57.218Z,24.10
2023-01-08T02:14:10.777Z,37.38
2023-01-08T02:17:20.813Z,28.02
2023-01-08T02:20:31.084Z,29.30
2023-01-08T02:23:47.433Z,30.37
2023-01-08T02:26:54.426Z,35.83
2023-01-08T02:29:59.716Z,28.95
2023-01-08T02:33:05.625Z,27.60
2023-01-08T02:36:46.519Z,24.23
2023-01-08T02:43:31.305Z,26.62
2023-01-08T02:46:40.310Z,26.48
2023-01-08T02:49:46.677Z,27.02
2023-01-08T02:53:03.041Z,31.75
2023-01-08T02:56:11.969Z,23.62
2023-01-08T02:59:19.589Z,26.48
2023-01-08T03:02:26.272Z,24.77
2023-01-08T03:05:40.727Z,26.48
2023-01-08T03:08:48.884Z,26.60
2023-01-08T03:12:10.313Z,26.85
2023-01-08T03:15:22.095Z,24.27
2023-01-08T03:18:29.741Z,21.77
2023-01-08T03:21:34.807Z,23.80
2023-01-08T03:24:43.237Z,27.35
2023-01-08T03:27:49.734Z,33.25
2023-01-08T03:34:10.789Z,31.05
2023-01-08T03:37:17.456Z,19.65
2023-01-08T03:40:30.945Z,23.20
2023-01-08T03:43:37.333Z,22.95
2023-01-08T03:46:48.502Z,36.25
2023-01-08T03:49:54.096Z,22.48
2023-01-08T03:53:00.838Z,29.02
2023-01-08T03:56:07.289Z,30.15
2023-01-08T03:59:13.744Z,26.15
2023-01-08T04:02:19.563Z,31.07
2023-01-08T04:05:25.358Z,25.85
2023-01-08T04:08:31.267Z,31.42
2023-01-08T04:11:36.911Z,30.32
2023-01-08T04:14:45.993Z,26.37
2023-01-08T04:17:52.351Z,22.20
2023-01-08T04:21:02.718Z,31.30
2023-01-08T04:27:12.543Z,22.13
2023-01-08T04:30:18.274Z,23.92
2023-01-08T04:33:24.001Z,27.48
2023-01-08T04:36:29.783Z,32.63
2023-01-08T04:39:34.731Z,28.45
2023-01-08T04:42:40.878Z,33.20
2023-01-08T04:45:45.610Z,30.77
2023-01-08T04:48:52.345Z,28.27
2023-01-08T04:51:58.304Z,28.60
2023-01-08T04:54:57.708Z,30.88
2023-01-08T04:58:03.444Z,41.18
2023-01-08T05:01:08.452Z,27.87
2023-01-08T05:04:17.235Z,34.18
2023-01-08T05:07:22.769Z,29.92
2023-01-08T05:10:28.511Z,45.48
2023-01-08T05:13:34.166Z,39.65
2023-01-08T05:16:41.230Z,34.38
2023-01-08T05:19:46.900Z,30.25
2023-01-08T05:22:52.265Z,24.65
2023-01-08T05:25:58.815Z,30.00
2023-01-08T05:29:05.308Z,30.57
2023-01-08T05:32:10.786Z,35.83
2023-01-08T05:35:16.971Z,38.92
2023-01-08T05:38:22.734Z,35.40
2023-01-08T05:41:27.645Z,38.60
2023-01-08T05:44:33.595Z,29.23
2023-01-08T05:47:40.084Z,42.80
2023-01-08T05:50:39.002Z,33.83
2023-01-08T05:53:31.883Z,39.08
2023-01-08T05:56:30.455Z,35.40
2023-01-08T05:59:36.885Z,27.75
2023-01-08T06:02:42.161Z,47.58
2023-01-08T06:05:47.811Z,34.48
2023-01-08T06:08:53.632Z,32.83
2023-01-08T06:12:00.676Z,43.63
2023-01-08T06:15:06.191Z,40.52
2023-01-08T06:18:11.632Z,43.02
2023-01-08T06:21:20.103Z,37.08
2023-01-08T06:24:25.065Z,43.63
2023-01-08T06:27:31.155Z,42.30
2023-01-08T06:30:36.869Z,30.35
2023-01-08T06:33:35.820Z,25.35
2023-01-08T06:36:41.680Z,34.70
2023-01-08T06:39:48.241Z,31.60
2023-01-08T06:42:54.672Z,35.83
2023-01-08T06:46:02.155Z,37.48
2023-01-08T06:49:07.564Z,32.03
2023-01-08T06:52:07.543Z,38.35
2023-01-08T06:55:14.078Z,37.30
2023-01-08T06:58:19.145Z,31.27
2023-01-08T07:01:29.804Z,33.55
2023-01-08T07:04:35.330Z,39.13
2023-01-08T07:07:41.219Z,37.60
2023-01-08T07:10:49.249Z,28.77
2023-01-08T07:13:54.391Z,28.20
2023-01-08T07:17:00.296Z,34.92
2023-01-08T07:20:05.629Z,32.67
2023-01-08T07:23:06.882Z,27.35
2023-01-08T07:26:18.242Z,30.72
2023-01-08T07:29:24.056Z,31.35
2023-01-08T07:32:29.455Z,28.32
2023-01-08T07:35:35.127Z,26.80
2023-01-08T07:38:40.264Z,26.40
2023-01-08T07:41:45.951Z,35.68
2023-01-08T07:44:51.709Z,31.73
2023-01-08T07:47:57.979Z,25.75
2023-01-08T07:51:03.351Z,29.10
2023-01-08T07:54:08.368Z,38.02
2023-01-08T07:57:14.082Z,37.17
2023-01-08T08:00:21.596Z,22.48
2023-01-08T08:03:26.642Z,26.95
2023-01-08T08:06:33.194Z,29.85
2023-01-08T08:09:38.339Z,29.70
2023-01-08T08:12:43.988Z,28.20
2023-01-08T08:15:50.770Z,33.10
2023-01-08T08:18:57.074Z,23.18
2023-01-08T08:22:02.599Z,30.08
2023-01-08T08:25:08.976Z,24.60
2023-01-08T08:28:15.081Z,36.38
2023-01-08T08:31:22.596Z,28.75
2023-01-08T08:34:29.474Z,32.78
2023-01-08T08:37:35.197Z,31.25
2023-01-08T08:40:41.834Z,30.65
2023-01-08T08:43:47.421Z,26.73
2023-01-08T08:46:53.887Z,21.25
2023-01-08T08:49:53.650Z,29.55
2023-01-08T08:53:00.084Z,30.88
2023-01-08T08:56:06.359Z,33.18
2023-01-08T08:59:13.163Z,28.07
2023-01-08T09:02:19.653Z,39.53
2023-01-08T09:05:26.262Z,30.72
2023-01-08T09:08:32.341Z,26.73
2023-01-08T09:11:37.697Z,30.35
2023-01-08T09:14:43.400Z,29.95
2023-01-08T09:17:50.258Z,32.35
2023-01-08T09:20:56.836Z,30.40
2023-01-08T09:23:57.768Z,24.47
2023-01-08T09:27:04.208Z,24.85
2023-01-08T09:30:09.536Z,22.32
2023-01-08T09:33:16.555Z,26.50
2023-01-08T09:36:27.295Z,23.67
2023-01-08T09:39:34.890Z,26.75
2023-01-08T09:42:42.474Z,32.08
2023-01-08T09:45:50.524Z,26.25
2023-01-08T09:48:57.792Z,29.72
2023-01-08T09:52:03.417Z,28.80
2023-01-08T09:55:09.107Z,25.02
2023-01-08T09:58:15.549Z,33.20
2023-01-08T10:01:22.216Z,24.57
2023-01-08T10:04:35.735Z,33.98
2023-01-08T10:07:43.792Z,21.75
2023-01-08T10:10:50.677Z,24.07
2023-01-08T10:13:59.858Z,23.15
2023-01-08T10:17:20.406Z,26.68
2023-01-08T10:23:34.992Z,29.07
2023-01-08T10:26:52.621Z,28.65
2023-01-08T10:29:59.564Z,30.25
2023-01-08T10:33:08.443Z,25.90
2023-01-08T10:36:20.081Z,29.35
2023-01-08T10:39:33.003Z,30.45
2023-01-08T10:42:38.481Z,31.87
2023-01-08T10:45:44.020Z,28.70
2023-01-08T10:49:01.587Z,26.70
2023-01-08T10:52:08.405Z,30.80
2023-01-08T10:55:47.314Z,27.67
2023-01-08T10:58:57.534Z,27.60
2023-01-08T11:02:04.564Z,30.23
2023-01-08T11:05:11.960Z,30.17
2023-01-08T11:08:20.735Z,25.82
2023-01-08T11:14:46.691Z,18.17
2023-01-08T11:17:52.452Z,21.62
2023-01-08T11:20:58.296Z,28.60
2023-01-08T11:24:32.990Z,28.32
2023-01-08T11:27:49.007Z,25.95
2023-01-08T11:30:54.358Z,26.40
2023-01-08T11:34:01.425Z,27.52
2023-01-08T11:37:29.475Z,23.10
2023-01-08T11:40:39.368Z,20.43
2023-01-08T11:44:09.916Z,23.12
2023-01-08T11:47:25.873Z,26.57
2023-01-08T11:50:52.290Z,24.25
2023-01-08T11:54:20.875Z,21.48
2023-01-08T11:57:39.760Z,23.30
2023-01-08T12:01:11.472Z,26.85
2023-01-08T12:04:32.747Z,21.35
2023-01-08T12:07:51.653Z,23.65
2023-01-08T12:11:23.140Z,25.85
2023-01-08T12:15:00.090Z,29.15
2023-01-08T12:18:31.597Z,24.65
2023-01-08T12:22:08.067Z,31.65
2023-01-08T12:25:34.192Z,29.60
2023-01-08T12:28:54.066Z,23.12
2023-01-08T12:32:29.401Z,27.77
2023-01-08T12:35:41.561Z,30.08
2023-01-08T12:38:51.208Z,24.20
2023-01-08T12:41:56.615Z,24.40
2023-01-08T12:45:02.240Z,26.10
2023-01-08T12:48:21.697Z,22.90
2023-01-08T12:51:46.336Z,22.73
2023-01-08T12:55:19.251Z,23.65
2023-01-08T12:58:46.985Z,20.32
2023-01-08T13:02:13.857Z,28.35
2023-01-08T13:05:35.619Z,20.55
2023-01-08T13:08:48.043Z,39.55
2023-01-08T13:11:54.896Z,25.72
2023-01-08T13:15:02.500Z,21.25
2023-01-08T13:18:14.639Z,21.85
2023-01-08T13:21:16.838Z,24.35
2023-01-08T13:24:51.453Z,17.90
2023-01-08T13:27:57.249Z,17.50
2023-01-08T13:31:03.462Z,24.35
2023-01-08T13:34:10.406Z,21.20
2023-01-08T13:37:27.102Z,23.12
2023-01-08T13:40:56.866Z,23.20
2023-01-08T13:43:56.125Z,19.70
2023-01-08T13:47:08.282Z,21.65
2023-01-08T13:50:13.880Z,22.07
2023-01-08T13:53:21.127Z,22.27
2023-01-08T13:56:27.894Z,24.65
2023-01-08T13:59:55.982Z,22.42
2023-01-08T14:03:02.038Z,30.23
2023-01-08T14:06:07.158Z,31.82
2023-01-08T14:09:18.755Z,20.08
2023-01-08T14:12:31.975Z,23.92
2023-01-08T14:15:43.290Z,27.45
2023-01-08T14:18:50.624Z,247.70
2023-01-08T14:21:55.758Z,141.43
2023-01-08T14:25:04.480Z,33.30
2023-01-08T14:28:16.221Z,55.40
2023-01-08T14:31:26.898Z,32.20
2023-01-08T14:34:32.612Z,23.45
2023-01-08T14:37:38.967Z,37.33
2023-01-08T14:40:50.898Z,23.47
2023-01-08T14:47:05.369Z,35.20
2023-01-08T14:50:04.465Z,41.48
2023-01-08T14:52:56.941Z,33.92
2023-01-08T14:56:04.567Z,25.20
2023-01-08T14:59:10.505Z,30.70
2023-01-08T15:02:18.096Z,37.98
2023-01-08T15:05:35.829Z,48.00
2023-01-08T15:08:52.507Z,33.65
2023-01-08T15:12:17.304Z,37.88
2023-01-08T15:15:34.383Z,50.03
2023-01-08T15:18:40.623Z,40.45
2023-01-08T15:21:45.660Z,38.35
2023-01-08T15:24:52.368Z,39.60
2023-01-08T15:28:04.204Z,37.25
2023-01-08T15:31:00.930Z,29.45
2023-01-08T15:34:07.775Z,30.95
2023-01-08T15:37:13.179Z,52.75
2023-01-08T15:40:20.403Z,43.08
2023-01-08T15:43:31.145Z,35.52
2023-01-08T15:46:37.617Z,40.52
2023-01-08T15:49:42.960Z,35.63
2023-01-08T15:52:49.858Z,33.20
2023-01-08T15:55:55.476Z,54.98
2023-01-08T15:59:01.411Z,46.63
2023-01-08T16:02:06.955Z,38.92
2023-01-08T16:05:12.558Z,49.05
2023-01-08T16:08:19.277Z,36.15
2023-01-08T16:11:27.649Z,42.10
2023-01-08T16:14:34.448Z,34.75
2023-01-08T16:17:41.450Z,60.98
2023-01-08T16:20:47.919Z,51.20
2023-01-08T16:23:55.845Z,45.10
2023-01-08T16:27:01.518Z,40.90
2023-01-08T16:30:07.383Z,48.60
2023-01-08T16:33:12.975Z,58.87
2023-01-08T16:36:20.804Z,47.27
2023-01-08T16:39:26.300Z,49.15
2023-01-08T16:42:31.854Z,50.23
2023-01-08T16:45:37.556Z,49.75
2023-01-08T16:48:42.629Z,42.98
2023-01-08T16:51:49.043Z,49.73
2023-01-08T16:54:58.685Z,56.37
2023-01-08T16:58:04.081Z,60.98
2023-01-08T17:01:10.633Z,50.95
2023-01-08T17:04:17.473Z,41.65
2023-01-08T17:07:23.101Z,48.90
2023-01-08T17:10:29.549Z,43.73
2023-01-08T17:13:34.754Z,50.23
2023-01-08T17:16:41.712Z,42.95
2023-01-08T17:19:47.303Z,35.43
2023-01-08T17:22:54.986Z,33.83
2023-01-08T17:26:01.314Z,34.13
2023-01-08T17:29:07.183Z,35.60
2023-01-08T17:32:13.569Z,43.45
2023-01-08T17:35:21.195Z,35.85
2023-01-08T17:38:27.198Z,57.27
2023-01-08T17:41:50.338Z,42.23
2023-01-08T17:44:56.021Z,50.10
2023-01-08T17:48:02.259Z,55.17
2023-01-08T17:51:09.566Z,55.63
2023-01-08T17:54:15.468Z,53.33
2023-01-08T17:57:22.145Z,45.60
2023-01-08T18:00:28.821Z,54.75
2023-01-08T18:03:34.460Z,63.58
2023-01-08T18:06:41.073Z,51.70
2023-01-08T18:09:46.992Z,49.00
2023-01-08T18:12:52.709Z,53.30
2023-01-08T18:15:58.247Z,52.10
2023-01-08T18:19:04.330Z,60.15
2023-01-08T18:22:09.839Z,62.17
2023-01-08T18:25:16.374Z,47.03
2023-01-08T18:28:20.976Z,69.53
2023-01-08T18:31:27.192Z,45.30
2023-01-08T18:34:33.434Z,42.60
2023-01-08T18:37:40.047Z,53.60
2023-01-08T18:40:46.836Z,44.60
2023-01-08T18:43:46.287Z,50.03
2023-01-08T18:46:53.034Z,46.33
2023-01-08T18:49:58.719Z,55.38
2023-01-08T18:53:05.158Z,43.33
2023-01-08T18:56:15.569Z,47.78
2023-01-08T18:59:14.768Z,38.05
2023-01-08T19:05:26.163Z,43.38
2023-01-08T19:08:32.725Z,37.28
2023-01-08T19:11:38.203Z,43.80
2023-01-08T19:14:44.030Z,41.58
2023-01-08T19:17:50.169Z,46.00
2023-01-08T19:21:00.075Z,33.63
2023-01-08T19:24:04.907Z,50.30
2023-01-08T19:27:10.799Z,69.27
2023-01-08T19:30:18.227Z,41.08
2023-01-08T19:33:23.977Z,51.92
2023-01-08T19:36:29.844Z,38.02
2023-01-08T19:39:38.965Z,74.77
2023-01-08T19:43:02.449Z,40.58
2023-01-08T19:46:07.822Z,54.83
2023-01-08T19:49:14.400Z,26.25
2023-01-08T19:52:21.066Z,39.65
2023-01-08T19:55:19.767Z,43.65
2023-01-08T19:58:05.790Z,36.13
2023-01-08T20:00:58.473Z,52.03
2023-01-08T20:03:47.042Z,40.43
2023-01-08T20:06:41.319Z,41.85
2023-01-08T20:09:34.058Z,75.57
2023-01-08T20:12:34.044Z,51.50
2023-01-08T20:15:40.578Z,45.88
2023-01-08T20:18:45.919Z,46.80
2023-01-08T20:21:52.064Z,38.35
2023-01-08T20:24:59.561Z,45.05
2023-01-08T20:28:05.517Z,38.00
2023-01-08T20:31:11.432Z,38.65
2023-01-08T20:34:20.954Z,42.05
2023-01-08T20:37:19.437Z,47.13
2023-01-08T20:40:27.102Z,62.08
2023-01-08T20:43:32.204Z,47.00
2023-01-08T20:46:42.301Z,65.37
2023-01-08T20:49:48.565Z,76.02
2023-01-08T20:52:54.115Z,61.88
2023-01-08T20:56:00.492Z,60.12
2023-01-08T20:59:05.994Z,55.92
2023-01-08T21:02:11.857Z,58.08
2023-01-08T21:05:18.034Z,75.52
2023-01-08T21:08:25.043Z,75.25
2023-01-08T21:11:30.242Z,74.07
2023-01-08T21:14:36.454Z,71.85
2023-01-08T21:17:41.854Z,67.47
2023-01-08T21:20:47.667Z,56.08
2023-01-08T21:23:53.947Z,64.07
2023-01-08T21:26:59.893Z,62.17
2023-01-08T21:30:05.544Z,88.67
2023-01-08T21:33:12.210Z,58.65
2023-01-08T21:36:28.625Z,52.93
2023-01-08T21:39:34.080Z,59.45
2023-01-08T21:42:57.474Z,51.65
2023-01-08T21:46:13.924Z,45.00
2023-01-08T21:49:20.382Z,48.48
2023-01-08T21:52:43.358Z,48.55
2023-01-08T21:55:49.434Z,60.88
2023-01-08T21:58:55.807Z,75.65
2023-01-08T22:02:02.179Z,75.05
2023-01-08T22:05:12.137Z,45.35
2023-01-08T22:08:19.561Z,51.88
2023-01-08T22:11:24.303Z,52.48
2023-01-08T22:14:30.383Z,48.58
2023-01-08T22:17:34.913Z,40.10
2023-01-08T22:20:40.019Z,36.95
2023-01-08T22:23:44.876Z,42.55
2023-01-08T22:26:50.956Z,43.55
2023-01-08T22:29:57.495Z,52.62
2023-01-08T22:33:03.698Z,58.52
2023-01-08T22:36:09.477Z,45.83
2023-01-08T22:39:14.564Z,48.40
2023-01-08T22:42:20.287Z,43.13
2023-01-08T22:45:26.416Z,39.15
2023-01-08T22:48:25.347Z,58.28
2023-01-08T22:51:34.850Z,59.42
2023-01-08T22:54:40.385Z,66.33
2023-01-08T22:57:46.953Z,59.35
2023-01-08T23:00:53.157Z,85.80
2023-01-08T23:03:58.568Z,84.30
2023-01-08T23:07:04.568Z,77.72
2023-01-08T23:10:11.969Z,69.35
2023-01-08T23:13:17.544Z,65.75
2023-01-08T23:16:27.299Z,62.88
2023-01-08T23:19:33.115Z,66.20
2023-01-08T23:22:39.280Z,45.75
2023-01-08T23:25:39.071Z,48.75
2023-01-08T23:28:33.627Z,44.55
2023-01-08T23:31:44.802Z,42.00
2023-01-08T23:34:50.455Z,38.67
2023-01-08T23:37:56.290Z,53.83
2023-01-08T23:41:01.338Z,45.43
2023-01-08T23:44:07.564Z,39.63
2023-01-08T23:47:13.351Z,49.40
2023-01-08T23:50:19.520Z,34.65
2023-01-08T23:53:25.458Z,40.80
2023-01-08T23:56:32.916Z,42.85
2023-01-08T23:59:39.080Z,47.58
